Time;durP1;ratioP1;P1;durP2;ratioP2;P2;SDS_P1;SDS_P2;PMS_P1;PMS_P2;Temp;Humidity;BMP_temperature;BMP_pressure;BME280_temperature;BME280_humidity;BME280_pressure;Samples;Min_cycle;Max_cycle;Signal;HPM_P1;HPM_P2
2023/09/17 00:02:20;;;;;;;;;;;23.60;63.30;;;;;;5072725;28;19908;-56
2023/09/17 00:04:46;;;;;;;;;;;23.60;63.40;;;;;;5072803;28;20322;-56
2023/09/17 00:07:11;;;;;;;;;;;23.60;63.40;;;;;;5071476;28;20275;-56
2023/09/17 00:09:37;;;;;;;;;;;23.60;63.60;;;;;;5072534;28;19960;-56
2023/09/17 00:12:03;;;;;;;;;;;23.60;63.40;;;;;;5072636;28;20006;-56
2023/09/17 00:14:28;;;;;;;;;;;23.50;63.30;;;;;;5071291;28;19909;-56
2023/09/17 00:16:54;;;;;;;;;;;23.60;63.50;;;;;;5071487;28;20360;-56
2023/09/17 00:19:19;;;;;;;;;;;23.60;63.50;;;;;;5071222;28;19951;-56
2023/09/17 00:21:45;;;;;;;;;;;23.60;63.40;;;;;;5073859;28;20374;-56
2023/09/17 00:24:12;;;;;;;;;;;23.60;63.40;;;;;;5076499;28;19912;-56
2023/09/17 00:26:37;;;;;;;;;;;23.60;63.50;;;;;;5076355;28;19916;-55
2023/09/17 00:29:03;;;;;;;;;;;23.60;63.50;;;;;;5075032;28;20003;-56
2023/09/17 00:31:28;;;;;;;;;;;23.60;64.30;;;;;;5076349;28;19912;-56
2023/09/17 00:33:53;;;;;;;;;;;23.60;63.60;;;;;;5074911;28;19908;-55
2023/09/17 00:36:20;;;;;;;;;;;23.50;63.60;;;;;;5076205;28;19908;-55
2023/09/17 00:38:45;;;;;;;;;;;23.50;63.40;;;;;;5076162;28;19958;-56
2023/09/17 00:41:11;;;;;;;;;;;23.50;64.40;;;;;;5076052;28;19909;-56
2023/09/17 00:43:36;;;;;;;;;;;23.50;63.50;;;;;;5076036;28;19916;-56
2023/09/17 00:46:01;;;;;;;;;;;23.50;63.50;;;;;;5076009;28;19948;-56
2023/09/17 00:48:27;;;;;;;;;;;23.50;63.60;;;;;;5074552;28;19919;-56
2023/09/17 00:50:53;;;;;;;;;;;23.50;63.80;;;;;;5075630;28;19913;-56
2023/09/17 00:53:18;;;;;;;;;;;23.50;63.80;;;;;;5075852;28;19916;-55
2023/09/17 00:55:43;;;;;;;;;;;23.50;63.80;;;;;;5075688;28;19952;-56
2023/09/17 00:58:09;;;;;;;;;;;23.50;63.80;;;;;;5075811;28;19940;-55
2023/09/17 01:00:38;;;;;;;;;;;23.50;63.80;;;;;;5075654;28;19908;-56
2023/09/17 01:03:04;;;;;;;;;;;23.50;63.80;;;;;;5075733;28;19909;-56
2023/09/17 01:05:36;;;;;;;;;;;23.50;63.80;;;;;;5075737;28;19908;-56
2023/09/17 01:08:05;;;;;;;;;;;23.50;63.80;;;;;;5082313;28;19916;-56
2023/09/17 01:10:32;;;;;;;;;;;23.50;63.80;;;;;;5075516;28;20403;-55
2023/09/17 01:12:57;;;;;;;;;;;23.50;63.80;;;;;;5074342;28;19908;-56
2023/09/17 01:15:24;;;;;;;;;;;23.50;64.10;;;;;;5075385;28;19915;-56
2023/09/17 01:17:54;;;;;;;;;;;23.50;64.20;;;;;;5075452;28;19931;-56
2023/09/17 01:20:26;;;;;;;;;;;23.50;63.80;;;;;;5075364;28;20016;-56
2023/09/17 01:22:55;;;;;;;;;;;23.40;63.70;;;;;;5075355;28;19936;-56
2023/09/17 01:25:21;;;;;;;;;;;23.50;63.70;;;;;;5074106;28;19959;-56
2023/09/17 01:27:48;;;;;;;;;;;23.50;63.90;;;;;;5075203;28;19908;-56
2023/09/17 01:30:16;;;;;;;;;;;23.50;63.80;;;;;;5075121;28;19913;-56
2023/09/17 01:32:42;;;;;;;;;;;23.50;63.80;;;;;;5074801;28;19998;-56
2023/09/17 01:35:09;;;;;;;;;;;23.50;64.80;;;;;;5075194;28;19912;-56
2023/09/17 01:37:35;;;;;;;;;;;23.40;63.80;;;;;;5075142;28;20270;-56
2023/09/17 01:40:10;;;;;;;;;;;23.40;63.90;;;;;;5073706;28;19909;-56
2023/09/17 01:42:37;;;;;;;;;;;23.40;64.00;;;;;;5073788;28;19909;-56
2023/09/17 01:45:02;;;;;;;;;;;23.40;63.70;;;;;;5074978;28;19976;-56
2023/09/17 01:47:28;;;;;;;;;;;23.40;63.80;;;;;;5073666;28;19912;-55
2023/09/17 01:49:57;;;;;;;;;;;23.40;63.80;;;;;;5073503;28;19909;-56
2023/09/17 01:52:25;;;;;;;;;;;23.40;63.80;;;;;;5073480;28;19916;-55
2023/09/17 01:54:50;;;;;;;;;;;23.40;63.90;;;;;;5074710;28;19908;-56
2023/09/17 01:57:16;;;;;;;;;;;23.40;63.90;;;;;;5074616;28;19954;-56
2023/09/17 01:59:41;;;;;;;;;;;23.40;63.70;;;;;;5074536;28;19916;-56
2023/09/17 02:02:07;;;;;;;;;;;23.50;63.70;;;;;;5074490;28;19995;-56
2023/09/17 02:04:32;;;;;;;;;;;23.40;63.70;;;;;;5074648;28;19924;-56
2023/09/17 02:06:58;;;;;;;;;;;23.40;63.60;;;;;;5074541;28;20389;-55
2023/09/17 02:09:23;;;;;;;;;;;23.40;63.70;;;;;;5073113;28;19912;-55
2023/09/17 02:11:49;;;;;;;;;;;23.40;63.70;;;;;;5074319;28;19920;-56
2023/09/17 02:14:15;;;;;;;;;;;23.40;63.80;;;;;;5074295;28;20004;-56
2023/09/17 02:16:41;;;;;;;;;;;23.40;63.60;;;;;;5072980;28;19909;-56
2023/09/17 02:19:06;;;;;;;;;;;23.40;63.90;;;;;;5072895;28;20376;-56
2023/09/17 02:21:31;;;;;;;;;;;23.40;63.80;;;;;;5074106;28;19909;-56
2023/09/17 02:23:57;;;;;;;;;;;23.40;63.80;;;;;;5074170;28;19916;-56
2023/09/17 02:26:22;;;;;;;;;;;23.40;63.70;;;;;;5074002;28;20024;-56
2023/09/17 02:28:48;;;;;;;;;;;23.40;63.70;;;;;;5073973;28;19917;-56
2023/09/17 02:31:14;;;;;;;;;;;23.40;63.80;;;;;;5073918;28;19912;-55
2023/09/17 02:33:40;;;;;;;;;;;23.40;63.50;;;;;;5073835;28;20275;-56
2023/09/17 02:36:06;;;;;;;;;;;23.40;63.60;;;;;;5073930;28;19908;-56
2023/09/17 02:38:31;;;;;;;;;;;23.40;63.60;;;;;;5073867;28;19991;-56
2023/09/17 02:40:57;;;;;;;;;;;23.40;63.60;;;;;;5072485;28;20400;-56
2023/09/17 02:43:22;;;;;;;;;;;23.40;63.70;;;;;;5073741;28;20348;-55
2023/09/17 02:45:49;;;;;;;;;;;23.40;63.70;;;;;;5071816;28;19912;-56
2023/09/17 02:48:15;;;;;;;;;;;23.40;63.50;;;;;;5073734;28;19950;-56
2023/09/17 02:50:40;;;;;;;;;;;23.40;63.50;;;;;;5073363;28;19948;-55
2023/09/17 02:53:06;;;;;;;;;;;23.40;63.70;;;;;;5073586;28;19913;-56
2023/09/17 02:55:33;;;;;;;;;;;23.40;64.50;;;;;;5073578;28;19915;-56
2023/09/17 02:58:01;;;;;;;;;;;23.40;63.50;;;;;;5073565;28;20395;-55
2023/09/17 03:00:26;;;;;;;;;;;23.40;63.60;;;;;;5073455;28;19908;-56
2023/09/17 03:02:54;;;;;;;;;;;23.30;63.40;;;;;;5073406;28;20062;-56
2023/09/17 03:05:20;;;;;;;;;;;23.40;63.50;;;;;;5073349;28;19912;-56
2023/09/17 03:07:46;;;;;;;;;;;23.30;63.40;;;;;;5073287;28;19913;-56
2023/09/17 03:10:12;;;;;;;;;;;23.30;63.40;;;;;;5073249;28;19924;-56
2023/09/17 03:12:41;;;;;;;;;;;23.30;63.50;;;;;;5073221;28;19913;-56
2023/09/17 03:15:07;;;;;;;;;;;23.30;63.50;;;;;;5073334;28;19975;-56
2023/09/17 03:17:35;;;;;;;;;;;23.30;63.50;;;;;;5073201;28;19908;-56
2023/09/17 03:20:05;;;;;;;;;;;23.30;63.50;;;;;;5073166;28;19908;-56
2023/09/17 03:22:30;;;;;;;;;;;23.30;63.60;;;;;;5073046;28;19915;-56
2023/09/17 03:24:56;;;;;;;;;;;23.30;63.50;;;;;;5073028;28;20379;-58
2023/09/17 03:27:21;;;;;;;;;;;23.30;64.30;;;;;;5073070;28;19923;-55
2023/09/17 03:29:47;;;;;;;;;;;23.20;63.50;;;;;;5072851;28;20292;-56
2023/09/17 03:32:12;;;;;;;;;;;23.30;63.50;;;;;;5072020;28;20330;-55
2023/09/17 03:34:38;;;;;;;;;;;23.30;63.60;;;;;;5072895;28;19913;-56
2023/09/17 03:37:03;;;;;;;;;;;23.30;63.50;;;;;;5073000;28;19913;-56
2023/09/17 03:39:29;;;;;;;;;;;23.30;63.60;;;;;;5072968;28;20339;-55
2023/09/17 03:41:54;;;;;;;;;;;23.30;63.60;;;;;;5072932;28;20318;-56
2023/09/17 03:44:20;;;;;;;;;;;23.30;63.70;;;;;;5072946;28;20012;-55
2023/09/17 03:46:46;;;;;;;;;;;23.30;63.50;;;;;;5073035;28;19934;-56
2023/09/17 03:49:11;;;;;;;;;;;23.30;63.50;;;;;;5072957;28;19913;-56
2023/09/17 03:51:37;;;;;;;;;;;23.30;63.60;;;;;;5072677;28;20296;-56
2023/09/17 03:54:04;;;;;;;;;;;23.20;63.60;;;;;;5072913;28;19962;-56
2023/09/17 03:56:29;;;;;;;;;;;23.30;63.50;;;;;;5075442;28;19915;-56
2023/09/17 03:58:54;;;;;;;;;;;23.30;63.60;;;;;;5077035;28;19991;-56
2023/09/17 04:01:20;;;;;;;;;;;23.20;63.50;;;;;;5076924;28;19908;-55
2023/09/17 04:03:46;;;;;;;;;;;23.20;63.70;;;;;;5076932;28;19915;-56
2023/09/17 04:06:11;;;;;;;;;;;23.20;63.50;;;;;;5076948;28;20368;-55
2023/09/17 04:08:36;;;;;;;;;;;23.20;63.50;;;;;;5076847;28;20276;-56
2023/09/17 04:11:04;;;;;;;;;;;23.20;63.50;;;;;;5076760;28;19916;-55
2023/09/17 04:13:29;;;;;;;;;;;23.20;63.60;;;;;;5076535;28;19915;-56
2023/09/17 04:15:55;;;;;;;;;;;23.20;63.50;;;;;;5076817;28;20281;-56
2023/09/17 04:18:20;;;;;;;;;;;23.20;63.50;;;;;;5076570;28;19915;-55
2023/09/17 04:20:47;;;;;;;;;;;23.20;63.60;;;;;;5076508;28;19960;-56
2023/09/17 04:23:13;;;;;;;;;;;23.20;63.60;;;;;;5076749;28;20423;-56
2023/09/17 04:25:38;;;;;;;;;;;23.20;63.60;;;;;;5076566;28;19916;-55
2023/09/17 04:28:05;;;;;;;;;;;23.10;64.30;;;;;;5076487;28;19941;-56
2023/09/17 04:30:30;;;;;;;;;;;23.10;63.60;;;;;;5076358;28;19918;-56
2023/09/17 04:32:56;;;;;;;;;;;23.10;63.60;;;;;;5076329;28;19995;-56
2023/09/17 04:35:21;;;;;;;;;;;23.10;63.60;;;;;;5075123;28;20361;-56
2023/09/17 04:37:47;;;;;;;;;;;23.10;63.80;;;;;;5076215;28;19954;-56
2023/09/17 04:40:13;;;;;;;;;;;23.10;63.70;;;;;;5076230;28;19909;-56
2023/09/17 04:42:39;;;;;;;;;;;23.10;63.60;;;;;;5076202;28;19913;-56
2023/09/17 04:45:05;;;;;;;;;;;23.10;63.60;;;;;;5075113;28;19908;-56
2023/09/17 04:47:32;;;;;;;;;;;23.10;63.70;;;;;;5074938;28;19995;-56
2023/09/17 04:49:58;;;;;;;;;;;23.10;63.70;;;;;;5075972;28;20375;-56
2023/09/17 04:52:23;;;;;;;;;;;23.10;63.80;;;;;;5075810;28;19916;-55
2023/09/17 04:54:50;;;;;;;;;;;23.10;63.60;;;;;;5075143;28;22357;-56
2023/09/17 04:57:16;;;;;;;;;;;23.10;63.70;;;;;;5075842;28;19995;-56
2023/09/17 04:59:41;;;;;;;;;;;23.10;63.80;;;;;;5074343;28;20012;-55
2023/09/17 05:02:07;;;;;;;;;;;23.10;63.70;;;;;;5074503;28;19915;-56
2023/09/17 05:04:32;;;;;;;;;;;23.10;63.70;;;;;;5075908;28;19948;-56
2023/09/17 05:06:58;;;;;;;;;;;23.10;63.90;;;;;;5075078;28;19920;-56
2023/09/17 05:09:24;;;;;;;;;;;23.10;63.90;;;;;;5075581;28;20334;-55
2023/09/17 05:11:49;;;;;;;;;;;23.10;63.80;;;;;;5075566;28;19962;-56
2023/09/17 05:14:15;;;;;;;;;;;23.10;63.70;;;;;;5075590;28;19954;-56
2023/09/17 05:16:40;;;;;;;;;;;23.10;64.50;;;;;;5075457;28;20237;-56
2023/09/17 05:19:06;;;;;;;;;;;23.10;63.70;;;;;;5075658;28;19908;-56
2023/09/17 05:21:31;;;;;;;;;;;23.10;63.80;;;;;;5075462;28;20303;-55
2023/09/17 05:23:57;;;;;;;;;;;23.10;63.80;;;;;;5075422;28;19931;-55
2023/09/17 05:26:23;;;;;;;;;;;23.10;63.60;;;;;;5075203;28;19908;-56
2023/09/17 05:28:48;;;;;;;;;;;23.00;63.50;;;;;;5075324;28;19962;-56
2023/09/17 05:31:14;;;;;;;;;;;23.10;63.60;;;;;;5073848;28;20376;-56
2023/09/17 05:33:39;;;;;;;;;;;23.10;63.50;;;;;;5075159;28;20344;-55
2023/09/17 05:36:05;;;;;;;;;;;23.10;63.60;;;;;;5075203;28;19912;-56
2023/09/17 05:38:30;;;;;;;;;;;23.10;63.60;;;;;;5075139;28;19909;-56
2023/09/17 05:40:56;;;;;;;;;;;23.00;63.40;;;;;;5075063;28;19908;-56
2023/09/17 05:43:22;;;;;;;;;;;23.00;63.50;;;;;;5075041;28;20343;-55
2023/09/17 05:45:49;;;;;;;;;;;23.00;63.60;;;;;;5075136;28;19909;-56
2023/09/17 05:48:14;;;;;;;;;;;23.00;63.50;;;;;;5074960;28;19916;-56
2023/09/17 05:50:40;;;;;;;;;;;23.00;63.50;;;;;;5074703;28;19912;-55
2023/09/17 05:53:05;;;;;;;;;;;23.00;63.60;;;;;;5075145;28;19924;-56
2023/09/17 05:55:31;;;;;;;;;;;23.00;63.60;;;;;;5074736;28;19908;-55
2023/09/17 05:57:57;;;;;;;;;;;23.00;63.60;;;;;;5074874;28;19909;-56
2023/09/17 06:00:22;;;;;;;;;;;23.00;63.70;;;;;;5074622;28;19915;-56
2023/09/17 06:02:48;;;;;;;;;;;23.00;63.60;;;;;;5075030;28;19912;-58
2023/09/17 06:05:13;;;;;;;;;;;23.00;63.70;;;;;;5074538;28;19916;-55
2023/09/17 06:07:39;;;;;;;;;;;23.00;63.70;;;;;;5074645;28;19919;-55
2023/09/17 06:10:05;;;;;;;;;;;23.00;63.70;;;;;;5074742;28;20002;-56
2023/09/17 06:12:31;;;;;;;;;;;23.00;63.70;;;;;;5074779;28;19987;-56
2023/09/17 06:14:56;;;;;;;;;;;22.90;63.70;;;;;;5074375;28;19909;-56
2023/09/17 06:17:22;;;;;;;;;;;22.90;63.80;;;;;;5074299;28;19916;-55
2023/09/17 06:19:47;;;;;;;;;;;22.90;63.70;;;;;;5072087;28;19957;-56
2023/09/17 06:22:12;;;;;;;;;;;22.90;63.70;;;;;;5074271;28;20384;-56
2023/09/17 06:24:38;;;;;;;;;;;22.90;63.70;;;;;;5072852;28;19913;-55
2023/09/17 06:27:03;;;;;;;;;;;22.90;64.10;;;;;;5074017;28;19915;-55
2023/09/17 06:29:29;;;;;;;;;;;22.90;63.90;;;;;;5074010;28;20322;-56
2023/09/17 06:31:55;;;;;;;;;;;22.90;63.90;;;;;;5073943;28;19912;-56
2023/09/17 06:34:20;;;;;;;;;;;22.90;63.90;;;;;;5074015;28;19999;-55
2023/09/17 06:36:46;;;;;;;;;;;22.90;64.00;;;;;;5074257;28;19971;-56
2023/09/17 06:39:12;;;;;;;;;;;22.90;64.00;;;;;;5072892;28;19931;-56
2023/09/17 06:41:37;;;;;;;;;;;22.90;64.10;;;;;;5073820;28;19916;-56
2023/09/17 06:44:03;;;;;;;;;;;22.90;64.10;;;;;;5073878;28;20357;-56
2023/09/17 06:46:29;;;;;;;;;;;22.90;64.10;;;;;;5073581;28;19962;-56
2023/09/17 06:48:55;;;;;;;;;;;23.00;64.10;;;;;;5073885;28;19909;-56
2023/09/17 06:51:20;;;;;;;;;;;22.90;64.20;;;;;;5073364;28;19943;-55
2023/09/17 06:53:46;;;;;;;;;;;22.90;64.00;;;;;;5073672;28;20036;-56
2023/09/17 06:56:12;;;;;;;;;;;22.90;64.10;;;;;;5073685;28;19915;-55
2023/09/17 06:58:37;;;;;;;;;;;22.90;64.00;;;;;;5073648;28;20305;-56
2023/09/17 07:01:03;;;;;;;;;;;22.90;64.10;;;;;;5073430;28;19935;-56
2023/09/17 07:03:28;;;;;;;;;;;22.90;64.20;;;;;;5073352;28;20296;-55
2023/09/17 07:05:54;;;;;;;;;;;22.90;64.20;;;;;;5073438;28;20343;-56
2023/09/17 07:08:19;;;;;;;;;;;22.90;64.20;;;;;;5072056;28;19908;-56
2023/09/17 07:10:45;;;;;;;;;;;22.90;64.30;;;;;;5073239;28;19912;-56
2023/09/17 07:13:11;;;;;;;;;;;22.90;64.20;;;;;;5073228;28;20280;-55
2023/09/17 07:15:36;;;;;;;;;;;22.90;64.30;;;;;;5073326;28;20372;-56
2023/09/17 07:18:02;;;;;;;;;;;22.90;64.30;;;;;;5071975;28;19916;-56
2023/09/17 07:20:27;;;;;;;;;;;22.90;64.50;;;;;;5073406;28;19908;-56
2023/09/17 07:22:53;;;;;;;;;;;22.90;64.50;;;;;;5073240;28;20318;-56
2023/09/17 07:25:18;;;;;;;;;;;22.80;64.30;;;;;;5073187;28;19912;-56
2023/09/17 07:27:43;;;;;;;;;;;22.90;64.60;;;;;;5073112;28;19909;-56
2023/09/17 07:30:09;;;;;;;;;;;22.80;64.40;;;;;;5072914;28;19908;-56
2023/09/17 07:32:36;;;;;;;;;;;22.90;64.60;;;;;;5073050;28;19963;-56
2023/09/17 07:35:02;;;;;;;;;;;22.90;65.00;;;;;;5072070;28;19919;-55
2023/09/17 07:37:28;;;;;;;;;;;22.90;64.80;;;;;;5072963;28;19909;-55
2023/09/17 07:39:55;;;;;;;;;;;22.90;64.90;;;;;;5073100;28;19915;-55
2023/09/17 07:42:21;;;;;;;;;;;22.90;64.70;;;;;;5073062;28;19916;-56
2023/09/17 07:44:46;;;;;;;;;;;22.90;64.80;;;;;;5072946;28;19908;-56
2023/09/17 07:47:12;;;;;;;;;;;22.90;64.90;;;;;;5073017;28;19913;-56
2023/09/17 07:49:37;;;;;;;;;;;22.80;64.60;;;;;;5073006;28;19954;-55
2023/09/17 07:52:03;;;;;;;;;;;22.80;64.90;;;;;;5072708;28;20292;-56
2023/09/17 07:54:30;;;;;;;;;;;22.90;64.70;;;;;;5072861;28;19913;-56
2023/09/17 07:56:55;;;;;;;;;;;22.90;65.10;;;;;;5071688;28;19909;-54
2023/09/17 07:59:21;;;;;;;;;;;22.80;65.00;;;;;;5072711;28;19923;-56
2023/09/17 08:01:49;;;;;;;;;;;22.90;65.00;;;;;;5072763;28;19934;-55
2023/09/17 08:04:15;;;;;;;;;;;22.80;65.10;;;;;;5072784;28;19909;-56
2023/09/17 08:06:40;;;;;;;;;;;22.80;64.90;;;;;;5072675;28;19924;-55
2023/09/17 08:09:06;;;;;;;;;;;22.80;65.10;;;;;;5071383;28;19908;-56
2023/09/17 08:11:31;;;;;;;;;;;22.80;65.20;;;;;;5072573;28;20003;-56
2023/09/17 08:13:57;;;;;;;;;;;22.90;65.30;;;;;;5072760;28;19922;-56
2023/09/17 08:16:24;;;;;;;;;;;22.90;65.20;;;;;;5072620;28;20367;-55
2023/09/17 08:18:50;;;;;;;;;;;22.90;65.50;;;;;;5072509;28;19909;-55
2023/09/17 08:21:15;;;;;;;;;;;22.80;65.00;;;;;;5072562;28;19919;-55
2023/09/17 08:23:41;;;;;;;;;;;22.80;65.60;;;;;;5072551;28;19912;-55
2023/09/17 08:26:07;;;;;;;;;;;22.80;65.70;;;;;;5072467;28;19978;-56
2023/09/17 08:28:34;;;;;;;;;;;22.80;65.70;;;;;;5072613;28;19931;-55
2023/09/17 08:30:59;;;;;;;;;;;22.80;66.10;;;;;;5072657;28;20341;-55
2023/09/17 08:33:24;;;;;;;;;;;22.80;65.50;;;;;;5072397;28;20007;-56
2023/09/17 08:35:50;;;;;;;;;;;22.90;65.70;;;;;;5072466;28;20341;-55
2023/09/17 08:38:15;;;;;;;;;;;22.90;66.10;;;;;;5072353;28;20357;-56
2023/09/17 08:40:41;;;;;;;;;;;22.90;65.80;;;;;;5072358;28;19908;-55
2023/09/17 08:43:06;;;;;;;;;;;22.90;65.90;;;;;;5074151;28;19915;-56
2023/09/17 08:45:32;;;;;;;;;;;22.90;65.90;;;;;;5076101;28;19908;-56
2023/09/17 08:47:57;;;;;;;;;;;22.90;66.10;;;;;;5075963;28;19915;-56
2023/09/17 08:50:24;;;;;;;;;;;22.90;66.10;;;;;;5075895;28;20307;-55
2023/09/17 08:52:52;;;;;;;;;;;22.90;66.60;;;;;;5074667;28;19974;-56
2023/09/17 08:55:17;;;;;;;;;;;22.90;66.40;;;;;;5074603;28;20339;-56
2023/09/17 08:57:43;;;;;;;;;;;22.90;66.30;;;;;;5075717;28;19909;-57
2023/09/17 09:00:09;;;;;;;;;;;22.90;66.10;;;;;;5075817;28;19962;-56
2023/09/17 09:02:42;;;;;;;;;;;22.90;66.40;;;;;;5075808;28;20155;-56
2023/09/17 09:05:08;;;;;;;;;;;22.90;66.90;;;;;;5075715;28;19996;-56
2023/09/17 09:07:33;;;;;;;;;;;22.90;67.20;;;;;;5075689;28;20079;-56
2023/09/17 09:09:59;;;;;;;;;;;22.90;67.50;;;;;;5074310;28;19939;-55
2023/09/17 09:12:24;;;;;;;;;;;22.90;67.60;;;;;;5075697;28;20420;-55
2023/09/17 09:14:50;;;;;;;;;;;22.90;67.80;;;;;;5075497;28;19909;-56
2023/09/17 09:17:15;;;;;;;;;;;22.90;67.60;;;;;;5075508;28;19908;-56
2023/09/17 09:19:41;;;;;;;;;;;23.00;67.60;;;;;;5075559;28;19916;-56
2023/09/17 09:22:06;;;;;;;;;;;23.00;67.50;;;;;;5074226;28;19915;-55
2023/09/17 09:24:44;;;;;;;;;;;23.00;66.90;;;;;;5075337;28;19951;-55
2023/09/17 09:27:10;;;;;;;;;;;23.00;66.80;;;;;;5075347;28;19909;-56
2023/09/17 09:29:36;;;;;;;;;;;23.10;67.00;;;;;;5075345;28;19915;-55
2023/09/17 09:32:02;;;;;;;;;;;23.10;66.70;;;;;;5073999;28;19913;-55
2023/09/17 09:34:27;;;;;;;;;;;23.00;66.80;;;;;;5075330;28;20351;-56
2023/09/17 09:36:53;;;;;;;;;;;23.00;66.90;;;;;;5073943;28;20372;-55
2023/09/17 09:39:20;;;;;;;;;;;23.10;67.00;;;;;;5075064;28;20326;-55
2023/09/17 09:41:45;;;;;;;;;;;23.10;66.70;;;;;;5075167;28;19909;-56
2023/09/17 09:44:12;;;;;;;;;;;23.10;67.00;;;;;;5075017;28;20003;-55
2023/09/17 09:46:37;;;;;;;;;;;23.10;66.90;;;;;;5075011;28;19974;-55
2023/09/17 09:49:03;;;;;;;;;;;23.10;66.80;;;;;;5074918;28;20361;-56
2023/09/17 09:51:29;;;;;;;;;;;23.10;66.90;;;;;;5074643;28;19924;-56
2023/09/17 09:53:55;;;;;;;;;;;23.10;66.90;;;;;;5074657;28;19915;-56
2023/09/17 09:56:21;;;;;;;;;;;23.10;67.00;;;;;;5074679;28;20284;-56
2023/09/17 09:58:47;;;;;;;;;;;23.10;67.00;;;;;;5073449;28;20335;-55
2023/09/17 10:01:14;;;;;;;;;;;23.10;67.10;;;;;;5073414;28;19916;-56
2023/09/17 10:03:40;;;;;;;;;;;23.10;67.00;;;;;;5074645;28;19908;-55
2023/09/17 10:06:06;;;;;;;;;;;23.10;67.00;;;;;;5074619;28;19909;-55
2023/09/17 10:08:33;;;;;;;;;;;23.10;66.80;;;;;;5074443;28;19908;-56
2023/09/17 10:10:58;;;;;;;;;;;23.10;66.90;;;;;;5073138;28;19912;-56
2023/09/17 10:13:23;;;;;;;;;;;23.10;66.80;;;;;;5074346;28;20438;-55
2023/09/17 10:15:49;;;;;;;;;;;23.20;66.60;;;;;;5073055;28;20342;-55
2023/09/17 10:18:14;;;;;;;;;;;23.20;66.70;;;;;;5072967;28;19912;-56
2023/09/17 10:20:43;;;;;;;;;;;23.20;67.00;;;;;;5074223;28;20319;-55
2023/09/17 10:23:10;;;;;;;;;;;23.20;67.10;;;;;;5074258;28;19912;-56
2023/09/17 10:25:35;;;;;;;;;;;23.30;67.10;;;;;;5056320;28;19995;-56
2023/09/17 10:28:01;;;;;;;;;;;23.40;66.80;;;;;;5072803;28;20386;-56
2023/09/17 10:30:27;;;;;;;;;;;23.50;66.40;;;;;;5074000;28;19923;-56
2023/09/17 10:32:52;;;;;;;;;;;23.60;66.20;;;;;;5072702;28;19908;-56
2023/09/17 10:35:18;;;;;;;;;;;23.60;65.80;;;;;;5072831;28;20009;-56
2023/09/17 10:37:43;;;;;;;;;;;23.70;65.70;;;;;;5073815;28;19912;-56
2023/09/17 10:40:10;;;;;;;;;;;23.70;65.70;;;;;;5073742;28;19913;-56
2023/09/17 10:42:41;;;;;;;;;;;23.80;65.60;;;;;;5073704;28;19908;-56
2023/09/17 10:45:10;;;;;;;;;;;23.90;65.40;;;;;;5073755;28;19909;-56
2023/09/17 10:47:39;;;;;;;;;;;23.90;64.90;;;;;;5073700;28;19908;-56
2023/09/17 10:50:04;;;;;;;;;;;23.90;64.70;;;;;;5072246;28;19935;-56
2023/09/17 10:52:30;;;;;;;;;;;23.90;64.60;;;;;;5072055;28;19920;-55
2023/09/17 10:54:56;;;;;;;;;;;23.90;64.80;;;;;;5073725;28;19908;-56
2023/09/17 10:57:23;;;;;;;;;;;23.80;64.90;;;;;;5073503;28;19909;-56
2023/09/17 10:59:49;;;;;;;;;;;23.80;64.90;;;;;;5073540;28;20130;-56
2023/09/17 11:02:14;;;;;;;;;;;23.70;65.10;;;;;;5073520;28;20246;-56
2023/09/17 11:04:40;;;;;;;;;;;23.70;65.30;;;;;;5073117;28;20360;-55
2023/09/17 11:07:07;;;;;;;;;;;23.70;65.30;;;;;;5073203;28;19984;-55
2023/09/17 11:09:32;;;;;;;;;;;23.70;65.50;;;;;;5073370;28;19909;-56
2023/09/17 11:11:58;;;;;;;;;;;23.80;65.30;;;;;;5073374;28;19912;-56
2023/09/17 11:14:23;;;;;;;;;;;23.80;65.10;;;;;;5073491;28;19916;-55
2023/09/17 11:16:49;;;;;;;;;;;23.90;64.70;;;;;;5073247;28;19991;-56
2023/09/17 11:19:21;;;;;;;;;;;24.00;64.80;;;;;;5073149;28;19948;-56
2023/09/17 11:21:50;;;;;;;;;;;24.10;64.20;;;;;;5071924;28;19916;-56
2023/09/17 11:24:17;;;;;;;;;;;24.20;63.60;;;;;;5073486;28;19958;-56
2023/09/17 11:26:45;;;;;;;;;;;24.30;63.40;;;;;;5071740;28;20360;-56
2023/09/17 11:29:10;;;;;;;;;;;24.30;63.00;;;;;;5073000;28;19912;-56
2023/09/17 11:31:57;;;;;;;;;;;24.30;63.20;;;;;;5072996;28;19966;-56
2023/09/17 11:34:22;;;;;;;;;;;24.20;63.30;;;;;;5072976;28;20319;-56
2023/09/17 11:36:48;;;;;;;;;;;24.10;63.90;;;;;;5071690;28;19957;-56
2023/09/17 11:39:20;;;;;;;;;;;24.10;64.00;;;;;;5073043;28;19915;-56
2023/09/17 11:41:46;;;;;;;;;;;24.10;64.20;;;;;;5071556;28;19909;-56
2023/09/17 11:44:11;;;;;;;;;;;24.10;64.20;;;;;;5073006;28;19916;-56
2023/09/17 11:46:37;;;;;;;;;;;24.10;64.00;;;;;;5072824;28;19909;-56
2023/09/17 11:49:02;;;;;;;;;;;24.20;63.90;;;;;;5072776;28;19952;-56
2023/09/17 11:51:29;;;;;;;;;;;24.10;64.10;;;;;;5071305;28;20017;-55
2023/09/17 11:53:58;;;;;;;;;;;24.10;64.00;;;;;;5071543;28;20438;-56
2023/09/17 11:56:47;;;;;;;;;;;24.10;64.00;;;;;;5073140;28;19944;-56
2023/09/17 11:59:15;;;;;;;;;;;24.10;64.00;;;;;;5072902;28;19931;-55
2023/09/17 12:01:41;;;;;;;;;;;24.10;64.20;;;;;;5072759;28;20369;-56
2023/09/17 12:04:08;;;;;;;;;;;24.10;64.20;;;;;;5071554;28;19908;-56
2023/09/17 12:06:40;;;;;;;;;;;24.00;64.30;;;;;;5072653;28;20003;-56
2023/09/17 12:09:15;;;;;;;;;;;24.00;64.40;;;;;;5072713;28;19909;-56
2023/09/17 12:11:41;;;;;;;;;;;24.00;64.60;;;;;;5078062;28;19912;-56
2023/09/17 12:14:07;;;;;;;;;;;24.00;64.70;;;;;;5071685;28;19909;-56
2023/09/17 12:16:33;;;;;;;;;;;24.00;65.00;;;;;;5072529;28;19909;-56
2023/09/17 12:18:58;;;;;;;;;;;24.00;65.10;;;;;;5074665;28;19915;-56
2023/09/17 12:21:25;;;;;;;;;;;24.00;65.10;;;;;;5076470;28;19950;-56
2023/09/17 12:26:26;;;;;;;;;;;24.00;65.30;;;;;;5076407;28;20349;-56
2023/09/17 12:28:51;;;;;;;;;;;23.90;65.30;;;;;;5076369;28;19912;-56
2023/09/17 12:31:17;;;;;;;;;;;23.90;65.70;;;;;;5076262;28;20364;-56
2023/09/17 12:33:43;;;;;;;;;;;23.90;65.80;;;;;;5058144;28;20365;-56
2023/09/17 12:36:09;;;;;;;;;;;23.90;65.70;;;;;;5076309;28;19999;-55
2023/09/17 12:38:35;;;;;;;;;;;23.90;65.80;;;;;;5076184;28;19959;-56
2023/09/17 12:41:00;;;;;;;;;;;23.90;66.00;;;;;;5074901;28;20369;-56
2023/09/17 12:43:26;;;;;;;;;;;23.90;65.90;;;;;;5076070;28;19908;-55
2023/09/17 12:45:51;;;;;;;;;;;23.90;66.80;;;;;;5076171;28;19915;-56
2023/09/17 12:48:18;;;;;;;;;;;23.80;67.20;;;;;;5076050;28;19908;-56
2023/09/17 12:50:43;;;;;;;;;;;23.90;67.90;;;;;;5075747;28;19913;-55
2023/09/17 12:53:09;;;;;;;;;;;23.90;67.50;;;;;;5076289;28;19923;-56
2023/09/17 12:55:34;;;;;;;;;;;23.80;67.30;;;;;;5074464;28;19920;-56
2023/09/17 12:58:03;;;;;;;;;;;23.80;67.30;;;;;;5075976;28;19909;-55
2023/09/17 13:00:29;;;;;;;;;;;23.80;67.50;;;;;;5075647;28;19912;-56
2023/09/17 13:02:54;;;;;;;;;;;23.80;67.50;;;;;;5075731;28;19916;-56
2023/09/17 13:05:20;;;;;;;;;;;23.80;67.50;;;;;;5075663;28;20376;-55
2023/09/17 13:07:45;;;;;;;;;;;23.80;68.00;;;;;;5075629;28;19920;-56
2023/09/17 13:10:11;;;;;;;;;;;23.80;67.60;;;;;;5075521;28;19955;-56
2023/09/17 13:12:36;;;;;;;;;;;23.80;67.90;;;;;;5075606;28;19909;-56
2023/09/17 13:15:03;;;;;;;;;;;23.70;67.80;;;;;;5057658;28;19934;-56
2023/09/17 13:17:29;;;;;;;;;;;23.70;67.80;;;;;;5075518;28;19908;-56
2023/09/17 13:19:55;;;;;;;;;;;23.70;67.80;;;;;;5075591;28;19908;-56
2023/09/17 13:22:21;;;;;;;;;;;23.70;67.90;;;;;;5075369;28;19915;-56
2023/09/17 13:24:46;;;;;;;;;;;23.70;69.10;;;;;;5075355;28;19995;-55
2023/09/17 13:27:12;;;;;;;;;;;23.70;69.00;;;;;;5075358;28;20276;-56
2023/09/17 13:29:39;;;;;;;;;;;23.70;69.20;;;;;;5073303;28;20407;-56
2023/09/17 13:32:06;;;;;;;;;;;23.70;69.70;;;;;;5075189;28;19955;-56
2023/09/17 13:34:32;;;;;;;;;;;23.70;69.90;;;;;;5075281;28;19916;-56
2023/09/17 13:36:57;;;;;;;;;;;23.70;69.80;;;;;;5075079;28;19909;-56
2023/09/17 13:39:23;;;;;;;;;;;23.70;69.60;;;;;;5073901;28;19952;-56
2023/09/17 13:41:49;;;;;;;;;;;23.60;69.10;;;;;;5074881;28;19912;-55
2023/09/17 13:44:14;;;;;;;;;;;23.70;69.10;;;;;;5075028;28;19909;-56
2023/09/17 13:46:46;;;;;;;;;;;23.70;69.40;;;;;;5074906;28;19932;-56
2023/09/17 13:49:11;;;;;;;;;;;23.70;69.10;;;;;;5074913;28;19908;-55
2023/09/17 13:51:37;;;;;;;;;;;23.70;69.30;;;;;;5074535;28;19924;-56
2023/09/17 13:54:03;;;;;;;;;;;23.70;70.00;;;;;;5074893;28;19908;-56
2023/09/17 13:56:28;;;;;;;;;;;23.70;70.00;;;;;;5074681;28;19955;-56
2023/09/17 13:58:54;;;;;;;;;;;23.70;69.60;;;;;;5074770;28;19915;-56
2023/09/17 14:01:20;;;;;;;;;;;23.70;69.90;;;;;;5075214;28;20360;-55
2023/09/17 14:03:45;;;;;;;;;;;23.70;70.30;;;;;;5074587;28;20384;-56
2023/09/17 14:06:11;;;;;;;;;;;23.70;70.30;;;;;;5073422;28;19912;-56
2023/09/17 14:08:36;;;;;;;;;;;23.60;70.20;;;;;;5074449;28;19961;-56
2023/09/17 14:11:05;;;;;;;;;;;23.70;70.30;;;;;;5073035;28;19920;-56
2023/09/17 14:13:33;;;;;;;;;;;23.70;70.30;;;;;;5074337;28;20005;-56